Time;durP1;ratioP1;P1;durP2;ratioP2;P2;SDS_P1;SDS_P2;PMS_P1;PMS_P2;Temp;Humidity;BMP_temperature;BMP_pressure;BME280_temperature;BME280_humidity;BME280_pressure;Samples;Min_cycle;Max_cycle;Signal;HPM_P1;HPM_P2
2023/01/26 00:00:31;;;;;;;2.95;1.65;;;;;;;;;;5015486;28;20053;-76
2023/01/26 00:02:57;;;;;;;3.53;1.30;;;;;;;;;;5011024;28;20026;-76
2023/01/26 00:05:23;;;;;;;4.38;1.42;;;;;;;;;;5008784;28;20421;-76
2023/01/26 00:07:49;;;;;;;2.33;1.50;;;;;;;;;;5029420;28;20033;-76
2023/01/26 00:10:15;;;;;;;1.98;1.17;;;;;;;;;;5020929;28;20112;-76
2023/01/26 00:12:41;;;;;;;3.28;1.70;;;;;;;;;;5033369;28;20045;-76
2023/01/26 00:15:07;;;;;;;1.95;1.38;;;;;;;;;;5025701;28;20049;-76
2023/01/26 00:17:33;;;;;;;1.65;1.00;;;;;;;;;;5028309;28;20017;-76
2023/01/26 00:19:59;;;;;;;2.88;1.52;;;;;;;;;;5021463;28;20477;-77
2023/01/26 00:22:26;;;;;;;1.90;1.35;;;;;;;;;;5026136;28;20130;-76
2023/01/26 00:24:53;;;;;;;3.13;1.38;;;;;;;;;;5016785;28;20100;-76
2023/01/26 00:27:18;;;;;;;2.05;1.20;;;;;;;;;;5019084;28;20018;-76
2023/01/26 00:29:44;;;;;;;4.50;1.80;;;;;;;;;;5026426;28;21088;-77
2023/01/26 00:32:10;;;;;;;1.80;1.00;;;;;;;;;;5020689;28;20021;-76
2023/01/26 00:34:36;;;;;;;2.25;1.30;;;;;;;;;;5029107;28;20087;-75
2023/01/26 00:37:02;;;;;;;2.08;1.40;;;;;;;;;;5026917;28;20014;-76
2023/01/26 00:39:28;;;;;;;3.92;1.60;;;;;;;;;;5028899;28;20362;-76
2023/01/26 00:42:08;;;;;;;1.55;1.10;;;;;;;;;;5025721;28;20041;-76
2023/01/26 00:44:35;;;;;;;1.73;1.10;;;;;;;;;;5025152;28;20040;-76
2023/01/26 00:47:01;;;;;;;3.35;1.67;;;;;;;;;;5014907;28;20029;-76
2023/01/26 00:49:27;;;;;;;1.60;1.30;;;;;;;;;;5034424;28;20034;-75
2023/01/26 00:51:53;;;;;;;2.30;1.42;;;;;;;;;;5022441;28;20033;-75
2023/01/26 00:54:19;;;;;;;2.50;1.52;;;;;;;;;;5024282;28;20018;-75
2023/01/26 00:56:45;;;;;;;3.17;1.38;;;;;;;;;;5021031;28;20493;-76
2023/01/26 00:59:11;;;;;;;2.95;1.52;;;;;;;;;;5023016;28;20029;-75
2023/01/26 01:01:37;;;;;;;2.28;1.23;;;;;;;;;;5027967;28;20071;-75
2023/01/26 01:04:03;;;;;;;1.48;1.10;;;;;;;;;;5017733;28;20073;-75
2023/01/26 01:06:29;;;;;;;2.75;1.25;;;;;;;;;;5022294;28;20076;-75
2023/01/26 01:08:55;;;;;;;2.28;1.38;;;;;;;;;;5023676;28;20044;-75
2023/01/26 01:11:21;;;;;;;2.47;1.40;;;;;;;;;;5037909;28;20021;-75
2023/01/26 01:13:47;;;;;;;2.63;1.60;;;;;;;;;;5017644;28;20045;-75
2023/01/26 01:16:15;;;;;;;1.95;1.10;;;;;;;;;;5024713;28;20037;-75
2023/01/26 01:18:41;;;;;;;1.48;1.08;;;;;;;;;;5024596;28;20025;-75
2023/01/26 01:21:08;;;;;;;3.15;1.88;;;;;;;;;;5024724;28;20033;-75
2023/01/26 01:23:34;;;;;;;2.78;1.55;;;;;;;;;;5018990;28;20036;-75
2023/01/26 01:26:01;;;;;;;2.85;1.45;;;;;;;;;;5016068;28;20530;-76
2023/01/26 01:28:27;;;;;;;2.65;1.38;;;;;;;;;;5016995;28;20033;-76
2023/01/26 01:30:53;;;;;;;3.03;1.17;;;;;;;;;;5023018;28;20049;-75
2023/01/26 01:33:19;;;;;;;2.45;1.38;;;;;;;;;;5024444;28;20032;-76
2023/01/26 01:35:56;;;;;;;1.88;1.13;;;;;;;;;;5020331;28;20026;-75
2023/01/26 01:38:22;;;;;;;2.47;1.40;;;;;;;;;;5027224;28;20033;-76
2023/01/26 01:40:48;;;;;;;1.38;1.15;;;;;;;;;;5024309;28;20083;-76
2023/01/26 01:43:13;;;;;;;2.67;1.40;;;;;;;;;;5016938;28;20068;-75
2023/01/26 01:45:47;;;;;;;2.95;1.20;;;;;;;;;;5021674;28;20075;-76
2023/01/26 01:48:17;;;;;;;2.33;1.30;;;;;;;;;;5021232;28;20215;-76
2023/01/26 01:50:44;;;;;;;2.42;1.40;;;;;;;;;;5032778;28;20235;-76
2023/01/26 01:53:12;;;;;;;2.33;1.20;;;;;;;;;;5017917;28;20120;-77
2023/01/26 01:55:38;;;;;;;2.47;1.23;;;;;;;;;;5017122;28;20116;-75
2023/01/26 01:58:05;;;;;;;1.90;1.23;;;;;;;;;;5016124;28;20030;-76
2023/01/26 02:00:31;;;;;;;4.88;1.77;;;;;;;;;;5018116;28;20136;-76
2023/01/26 02:03:17;;;;;;;2.08;1.40;;;;;;;;;;5015584;28;20040;-76
2023/01/26 02:05:56;;;;;;;2.95;1.08;;;;;;;;;;5017345;28;20029;-76
2023/01/26 02:08:25;;;;;;;2.10;1.48;;;;;;;;;;5015295;28;20029;-76
2023/01/26 02:10:53;;;;;;;1.50;1.23;;;;;;;;;;5020459;28;20543;-76
2023/01/26 02:13:20;;;;;;;2.22;1.30;;;;;;;;;;5014377;28;20032;-76
2023/01/26 02:15:46;;;;;;;3.53;1.45;;;;;;;;;;5027515;28;20067;-76
2023/01/26 02:18:12;;;;;;;2.22;1.33;;;;;;;;;;5016003;28;20030;-76
2023/01/26 02:20:52;;;;;;;2.17;1.60;;;;;;;;;;5027343;28;20390;-76
2023/01/26 02:23:25;;;;;;;2.70;1.42;;;;;;;;;;5017579;28;20034;-76
2023/01/26 02:25:51;;;;;;;2.90;1.40;;;;;;;;;;5020414;28;20033;-76
2023/01/26 02:28:18;;;;;;;4.47;1.50;;;;;;;;;;5017986;28;20030;-76
2023/01/26 02:30:45;;;;;;;3.65;1.13;;;;;;;;;;5027443;28;20029;-76
2023/01/26 02:33:14;;;;;;;3.90;1.35;;;;;;;;;;5020720;28;20021;-76
2023/01/26 02:35:40;;;;;;;4.43;1.60;;;;;;;;;;5021878;28;20025;-77
2023/01/26 02:38:07;;;;;;;2.60;1.35;;;;;;;;;;5021817;28;20048;-76
2023/01/26 02:40:46;;;;;;;2.05;1.33;;;;;;;;;;5018228;28;20033;-76
2023/01/26 02:43:12;;;;;;;2.92;1.70;;;;;;;;;;5020825;28;20307;-76
2023/01/26 02:45:38;;;;;;;3.78;1.67;;;;;;;;;;5017036;28;21437;-76
2023/01/26 02:48:05;;;;;;;2.05;1.25;;;;;;;;;;5013919;28;20093;-76
2023/01/26 02:50:31;;;;;;;2.33;1.60;;;;;;;;;;5019280;28;20038;-76
2023/01/26 02:52:58;;;;;;;2.95;1.75;;;;;;;;;;5026845;28;20033;-76
2023/01/26 02:55:25;;;;;;;2.63;1.30;;;;;;;;;;5012489;28;20022;-77
2023/01/26 02:57:52;;;;;;;1.58;1.30;;;;;;;;;;5026316;28;20017;-76
2023/01/26 03:00:19;;;;;;;3.05;1.52;;;;;;;;;;5019378;28;20081;-76
2023/01/26 03:02:46;;;;;;;3.17;2.00;;;;;;;;;;5013138;28;20061;-76
2023/01/26 03:05:12;;;;;;;3.40;1.60;;;;;;;;;;5019769;28;20797;-76
2023/01/26 03:07:38;;;;;;;3.38;1.85;;;;;;;;;;5022317;28;20032;-77
2023/01/26 03:10:04;;;;;;;2.33;1.40;;;;;;;;;;5019824;28;20056;-76
2023/01/26 03:12:31;;;;;;;5.43;2.00;;;;;;;;;;5021091;28;20026;-76
2023/01/26 03:17:41;;;;;;;4.28;1.50;;;;;;;;;;5023888;28;20084;-76
2023/01/26 03:28:22;;;;;;;3.58;1.73;;;;;;;;;;5019069;28;20110;-76
2023/01/26 03:30:48;;;;;;;3.22;1.60;;;;;;;;;;5024357;28;20037;-76
2023/01/26 03:33:15;;;;;;;2.72;1.73;;;;;;;;;;5022354;28;20022;-76
2023/01/26 03:35:41;;;;;;;2.70;1.48;;;;;;;;;;5012771;28;20026;-76
2023/01/26 03:38:07;;;;;;;3.20;2.15;;;;;;;;;;5014673;28;20414;-76
2023/01/26 03:57:01;;;;;;;3.33;1.60;;;;;;;;;;5020067;28;20044;-76
2023/01/26 03:59:39;;;;;;;3.08;1.60;;;;;;;;;;5027782;28;20065;-76
2023/01/26 04:10:21;;;;;;;2.40;1.63;;;;;;;;;;5023739;28;20080;-76
2023/01/26 04:23:47;;;;;;;3.63;1.70;;;;;;;;;;5017917;28;20082;-76
2023/01/26 04:26:13;;;;;;;4.80;1.75;;;;;;;;;;5014276;28;20282;-76
2023/01/26 04:28:39;;;;;;;3.13;1.42;;;;;;;;;;5017907;28;20022;-77
2023/01/26 04:31:05;;;;;;;2.90;1.63;;;;;;;;;;5011979;28;20030;-76
2023/01/26 04:33:31;;;;;;;3.85;1.80;;;;;;;;;;5015408;28;20563;-76
2023/01/26 04:36:01;;;;;;;3.33;1.50;;;;;;;;;;5015564;28;20033;-75
2023/01/26 04:38:27;;;;;;;1.98;1.20;;;;;;;;;;5027405;28;20017;-83
2023/01/26 04:40:54;;;;;;;2.65;1.50;;;;;;;;;;5016802;28;20033;-76
2023/01/26 04:43:20;;;;;;;2.15;1.42;;;;;;;;;;5025936;28;20056;-75
2023/01/26 04:45:56;;;;;;;4.65;1.73;;;;;;;;;;5015001;28;20564;-76
2023/01/26 04:48:22;;;;;;;2.13;1.50;;;;;;;;;;5022468;28;20044;-76
2023/01/26 04:50:53;;;;;;;2.75;1.42;;;;;;;;;;5017756;28;20425;-76
2023/01/26 04:53:18;;;;;;;4.07;1.50;;;;;;;;;;5023977;28;20453;-76
2023/01/26 04:55:44;;;;;;;3.13;1.40;;;;;;;;;;5024549;28;20240;-76
2023/01/26 04:58:11;;;;;;;1.88;1.55;;;;;;;;;;5023342;28;20588;-76
2023/01/26 05:00:37;;;;;;;3.97;1.52;;;;;;;;;;5028516;28;20047;-76
2023/01/26 05:03:03;;;;;;;2.92;1.70;;;;;;;;;;5024187;28;20030;-76
2023/01/26 05:05:29;;;;;;;4.05;1.50;;;;;;;;;;5026765;28;20208;-76
2023/01/26 05:07:54;;;;;;;1.90;1.25;;;;;;;;;;5028340;28;20100;-76
2023/01/26 05:10:20;;;;;;;2.50;1.40;;;;;;;;;;5028651;28;20033;-76
2023/01/26 05:12:46;;;;;;;2.83;1.40;;;;;;;;;;5030033;28;20033;-76
2023/01/26 05:15:12;;;;;;;3.65;1.48;;;;;;;;;;5026191;28;20017;-76
2023/01/26 05:17:38;;;;;;;1.80;1.27;;;;;;;;;;5028378;28;20516;-76
2023/01/26 05:20:04;;;;;;;2.60;1.30;;;;;;;;;;5027669;28;20025;-76
2023/01/26 05:25:17;;;;;;;2.70;1.30;;;;;;;;;;5014371;28;20132;-76
2023/01/26 05:27:43;;;;;;;2.15;1.30;;;;;;;;;;5028627;28;20120;-77
2023/01/26 05:30:10;;;;;;;2.83;1.45;;;;;;;;;;5028592;28;20157;-77
2023/01/26 05:32:36;;;;;;;2.70;1.48;;;;;;;;;;5025344;28;20117;-75
2023/01/26 05:35:02;;;;;;;2.17;1.30;;;;;;;;;;5014784;28;20041;-77
2023/01/26 05:37:28;;;;;;;2.30;1.42;;;;;;;;;;5015216;28;20030;-77
2023/01/26 05:39:54;;;;;;;1.92;1.15;;;;;;;;;;5023592;28;20029;-75
2023/01/26 05:42:20;;;;;;;1.77;1.23;;;;;;;;;;5027229;28;20061;-75
2023/01/26 05:44:46;;;;;;;1.80;1.17;;;;;;;;;;5020610;28;20041;-76
2023/01/26 05:47:12;;;;;;;2.10;1.30;;;;;;;;;;5023907;28;20026;-76
2023/01/26 05:49:41;;;;;;;2.83;1.58;;;;;;;;;;5029380;28;20116;-76
2023/01/26 05:52:11;;;;;;;1.23;1.13;;;;;;;;;;5028562;28;20044;-76
2023/01/26 05:54:37;;;;;;;3.30;1.75;;;;;;;;;;5027348;28;20691;-76
2023/01/26 05:57:03;;;;;;;2.25;1.60;;;;;;;;;;5025373;28;20033;-76
2023/01/26 05:59:29;;;;;;;1.92;1.42;;;;;;;;;;5009053;28;20117;-76
2023/01/26 06:01:56;;;;;;;2.38;1.50;;;;;;;;;;5016920;28;20512;-76
2023/01/26 06:04:22;;;;;;;2.40;1.35;;;;;;;;;;5020486;28;20033;-76
2023/01/26 06:06:48;;;;;;;3.05;1.08;;;;;;;;;;5020246;28;20029;-76
2023/01/26 06:09:14;;;;;;;1.35;1.20;;;;;;;;;;5026396;28;20151;-76
2023/01/26 06:11:40;;;;;;;2.40;1.35;;;;;;;;;;5022534;28;20033;-76
2023/01/26 06:14:06;;;;;;;2.88;1.40;;;;;;;;;;5020214;28;20037;-76
2023/01/26 06:16:32;;;;;;;2.33;1.25;;;;;;;;;;5019139;28;20108;-77
2023/01/26 06:18:58;;;;;;;2.83;1.42;;;;;;;;;;5028209;28;20075;-76
2023/01/26 06:21:24;;;;;;;2.05;1.38;;;;;;;;;;5024722;28;20494;-76
2023/01/26 06:23:50;;;;;;;3.28;1.30;;;;;;;;;;5021776;28;20512;-76
2023/01/26 06:26:16;;;;;;;2.22;1.45;;;;;;;;;;5034465;28;20029;-76
2023/01/26 06:28:42;;;;;;;2.15;1.30;;;;;;;;;;5031763;28;20036;-76
2023/01/26 06:31:09;;;;;;;2.30;1.33;;;;;;;;;;5025689;28;20033;-76
2023/01/26 06:33:36;;;;;;;1.95;1.20;;;;;;;;;;5019608;28;20164;-75
2023/01/26 06:36:03;;;;;;;2.67;1.33;;;;;;;;;;5012010;28;20025;-76
2023/01/26 06:38:29;;;;;;;2.70;1.00;;;;;;;;;;5023190;28;20029;-75
2023/01/26 06:40:58;;;;;;;1.88;1.08;;;;;;;;;;5021736;28;20033;-75
2023/01/26 06:43:24;;;;;;;2.47;1.45;;;;;;;;;;5012573;28;20029;-75
2023/01/26 06:45:50;;;;;;;2.65;1.50;;;;;;;;;;5023242;28;20393;-75
2023/01/26 06:48:16;;;;;;;2.38;1.55;;;;;;;;;;5009484;28;20488;-75
2023/01/26 06:50:44;;;;;;;2.65;1.30;;;;;;;;;;5013926;28;20099;-74
2023/01/26 06:53:30;;;;;;;2.85;1.20;;;;;;;;;;5022333;28;20018;-75
2023/01/26 06:55:57;;;;;;;2.22;1.35;;;;;;;;;;5009539;28;20041;-74
2023/01/26 06:58:23;;;;;;;2.28;1.35;;;;;;;;;;5013887;28;20109;-72
2023/01/26 07:00:49;;;;;;;2.03;1.35;;;;;;;;;;5013215;28;20046;-72
2023/01/26 07:03:15;;;;;;;1.90;1.33;;;;;;;;;;5016159;28;20653;-72
2023/01/26 07:05:41;;;;;;;2.60;1.15;;;;;;;;;;5025388;28;20079;-72
2023/01/26 07:08:07;;;;;;;1.92;1.20;;;;;;;;;;5027354;28;20033;-72
2023/01/26 07:10:34;;;;;;;2.65;1.33;;;;;;;;;;5020707;28;20059;-72
2023/01/26 07:13:00;;;;;;;2.28;1.50;;;;;;;;;;5030811;28;20021;-72
2023/01/26 07:15:26;;;;;;;2.65;1.33;;;;;;;;;;5027402;28;20493;-72
2023/01/26 07:17:53;;;;;;;1.95;1.15;;;;;;;;;;5033696;28;20030;-73
2023/01/26 07:20:19;;;;;;;2.80;1.50;;;;;;;;;;5026716;28;20044;-73
2023/01/26 07:22:45;;;;;;;1.83;1.20;;;;;;;;;;5021044;28;20038;-73
2023/01/26 07:25:11;;;;;;;1.67;1.13;;;;;;;;;;5023650;28;20032;-73
2023/01/26 07:27:37;;;;;;;2.00;1.20;;;;;;;;;;5026020;28;20084;-74
2023/01/26 07:30:03;;;;;;;1.92;1.25;;;;;;;;;;5022930;28;20101;-73
2023/01/26 07:32:35;;;;;;;2.60;1.40;;;;;;;;;;5015245;28;20071;-75
2023/01/26 07:35:01;;;;;;;2.45;1.38;;;;;;;;;;5023085;28;20088;-73
2023/01/26 07:37:27;;;;;;;2.80;1.50;;;;;;;;;;5010501;28;20030;-74
2023/01/26 07:39:53;;;;;;;2.45;1.20;;;;;;;;;;5012439;28;20054;-76
2023/01/26 07:42:19;;;;;;;2.05;1.20;;;;;;;;;;5019884;28;20049;-76
2023/01/26 07:44:45;;;;;;;5.57;1.33;;;;;;;;;;5030706;28;20512;-76
2023/01/26 07:47:13;;;;;;;2.25;1.45;;;;;;;;;;5028273;28;20449;-75
2023/01/26 07:49:39;;;;;;;2.03;1.10;;;;;;;;;;5026527;28;20039;-76
2023/01/26 07:52:05;;;;;;;2.72;1.50;;;;;;;;;;5026283;28;20509;-76
2023/01/26 07:54:31;;;;;;;2.03;1.30;;;;;;;;;;5025960;28;20060;-76
2023/01/26 07:56:57;;;;;;;1.85;1.10;;;;;;;;;;5025742;28;20168;-75
2023/01/26 07:59:23;;;;;;;2.25;1.30;;;;;;;;;;5030310;28;20017;-75
2023/01/26 08:01:50;;;;;;;2.00;1.30;;;;;;;;;;5017300;28;20084;-74
2023/01/26 08:04:16;;;;;;;2.85;1.30;;;;;;;;;;5013615;28;20430;-74
2023/01/26 08:06:42;;;;;;;2.50;1.20;;;;;;;;;;5021827;28;20060;-76
2023/01/26 08:09:08;;;;;;;1.65;1.10;;;;;;;;;;5016782;28;20033;-75
2023/01/26 08:11:34;;;;;;;2.10;1.20;;;;;;;;;;5018665;28;20025;-76
2023/01/26 08:14:00;;;;;;;3.38;1.50;;;;;;;;;;5021162;28;20617;-75
2023/01/26 08:16:26;;;;;;;4.90;1.10;;;;;;;;;;5026925;28;20021;-75
2023/01/26 08:18:52;;;;;;;2.47;1.40;;;;;;;;;;5016482;28;20393;-76
2023/01/26 08:21:18;;;;;;;1.23;0.93;;;;;;;;;;5026763;28;20031;-76
2023/01/26 08:23:49;;;;;;;6.20;1.33;;;;;;;;;;5026790;28;20036;-76
2023/01/26 08:26:16;;;;;;;2.95;1.27;;;;;;;;;;5030082;28;20116;-75
2023/01/26 08:28:42;;;;;;;3.42;1.30;;;;;;;;;;5030327;28;20090;-75
2023/01/26 08:31:10;;;;;;;3.33;1.45;;;;;;;;;;5030497;28;20033;-76
2023/01/26 08:33:36;;;;;;;1.75;1.15;;;;;;;;;;5030155;28;20104;-75
2023/01/26 08:36:03;;;;;;;3.03;1.35;;;;;;;;;;5030475;28;20030;-75
2023/01/26 08:38:33;;;;;;;1.40;0.93;;;;;;;;;;5030244;28;20087;-76
2023/01/26 08:40:59;;;;;;;3.00;1.52;;;;;;;;;;5030524;28;20030;-76
2023/01/26 08:43:25;;;;;;;1.83;1.20;;;;;;;;;;5030547;28;20032;-76
2023/01/26 08:45:51;;;;;;;2.22;1.33;;;;;;;;;;5030244;28;20512;-76
2023/01/26 08:48:17;;;;;;;2.00;0.98;;;;;;;;;;5029814;28;20025;-76
2023/01/26 08:50:43;;;;;;;3.47;1.10;;;;;;;;;;5029628;28;20370;-76
2023/01/26 08:53:09;;;;;;;1.33;0.93;;;;;;;;;;5030621;28;20025;-76
2023/01/26 08:55:35;;;;;;;1.38;1.20;;;;;;;;;;5029811;28;20562;-76
2023/01/26 08:58:01;;;;;;;1.25;0.90;;;;;;;;;;5029780;28;20743;-76
2023/01/26 09:00:27;;;;;;;1.55;1.00;;;;;;;;;;5029311;28;20049;-76
2023/01/26 09:03:00;;;;;;;1.83;1.05;;;;;;;;;;5029750;28;20108;-76
2023/01/26 09:05:27;;;;;;;2.90;1.52;;;;;;;;;;5029234;28;20121;-76
2023/01/26 09:07:53;;;;;;;1.20;0.90;;;;;;;;;;5030416;28;20164;-75
2023/01/26 09:10:19;;;;;;;0.90;0.80;;;;;;;;;;5029316;28;20556;-76
2023/01/26 09:12:45;;;;;;;3.50;1.80;;;;;;;;;;5034140;28;20017;-76
2023/01/26 09:15:11;;;;;;;2.80;1.00;;;;;;;;;;5029907;28;20021;-75
2023/01/26 09:17:37;;;;;;;2.13;1.15;;;;;;;;;;5029717;28;20056;-76
2023/01/26 09:20:04;;;;;;;3.35;1.15;;;;;;;;;;5029389;28;20510;-75
2023/01/26 09:22:30;;;;;;;1.45;1.00;;;;;;;;;;5029237;28;20037;-77
2023/01/26 09:24:56;;;;;;;2.33;1.20;;;;;;;;;;5029136;28;20481;-76
2023/01/26 09:27:22;;;;;;;2.65;1.10;;;;;;;;;;5029666;28;20033;-77
2023/01/26 09:29:48;;;;;;;1.88;1.08;;;;;;;;;;5029338;28;20030;-75
2023/01/26 09:32:14;;;;;;;1.10;1.00;;;;;;;;;;5029556;28;20048;-77
2023/01/26 09:34:40;;;;;;;2.85;1.30;;;;;;;;;;5029015;28;20108;-75
2023/01/26 09:37:09;;;;;;;1.27;0.90;;;;;;;;;;5028580;28;20032;-76
2023/01/26 09:39:35;;;;;;;2.67;1.08;;;;;;;;;;5029087;28;20516;-75
2023/01/26 09:42:14;;;;;;;1.42;1.05;;;;;;;;;;5029304;28;20017;-76
2023/01/26 09:44:45;;;;;;;1.08;0.90;;;;;;;;;;5029350;28;20083;-75
2023/01/26 09:47:11;;;;;;;2.35;1.10;;;;;;;;;;5028827;28;20022;-75
2023/01/26 09:49:40;;;;;;;1.40;1.08;;;;;;;;;;5028686;28;20090;-76
2023/01/26 09:52:09;;;;;;;1.05;0.90;;;;;;;;;;5028583;28;20043;-75
2023/01/26 09:54:59;;;;;;;1.92;1.35;;;;;;;;;;5010871;28;20121;-75
2023/01/26 09:57:42;;;;;;;1.88;1.40;;;;;;;;;;5005145;28;20486;-75
2023/01/26 10:00:10;;;;;;;1.10;1.00;;;;;;;;;;5029148;28;20041;-75
2023/01/26 10:02:59;;;;;;;2.65;1.27;;;;;;;;;;5028868;28;20048;-77
2023/01/26 10:05:29;;;;;;;1.63;1.08;;;;;;;;;;5029096;28;20124;-76
2023/01/26 10:07:55;;;;;;;1.13;1.00;;;;;;;;;;5028953;28;20025;-76
2023/01/26 10:10:32;;;;;;;1.13;0.85;;;;;;;;;;5028442;28;20028;-75
2023/01/26 10:12:59;;;;;;;0.77;0.73;;;;;;;;;;5032335;28;20045;-76
2023/01/26 10:15:33;;;;;;;1.13;0.80;;;;;;;;;;5028462;28;20071;-75
2023/01/26 10:18:02;;;;;;;5.00;0.88;;;;;;;;;;5028361;28;20117;-75
2023/01/26 10:20:30;;;;;;;1.38;0.80;;;;;;;;;;5028308;28;20089;-76
2023/01/26 10:23:17;;;;;;;1.55;1.08;;;;;;;;;;5028111;28;20243;-75
2023/01/26 10:25:47;;;;;;;1.55;1.27;;;;;;;;;;5027710;28;20422;-75
2023/01/26 10:28:14;;;;;;;1.13;1.02;;;;;;;;;;5027765;28;20022;-75
2023/01/26 10:30:41;;;;;;;1.05;0.90;;;;;;;;;;5028517;28;20030;-75
2023/01/26 10:33:29;;;;;;;1.75;0.95;;;;;;;;;;5028662;28;20036;-76
2023/01/26 10:35:56;;;;;;;2.60;1.27;;;;;;;;;;5028378;28;20445;-75
2023/01/26 10:38:33;;;;;;;2.15;1.08;;;;;;;;;;5027806;28;20041;-74
2023/01/26 10:41:04;;;;;;;1.27;1.10;;;;;;;;;;5027660;28;20029;-75
2023/01/26 10:43:40;;;;;;;2.53;1.10;;;;;;;;;;5027860;28;20029;-75
2023/01/26 10:46:06;;;;;;;1.83;1.30;;;;;;;;;;5028421;28;20053;-76
2023/01/26 10:48:33;;;;;;;2.13;1.10;;;;;;;;;;5027473;28;20560;-76
2023/01/26 10:51:15;;;;;;;2.80;1.42;;;;;;;;;;5027199;28;20034;-75
2023/01/26 10:53:41;;;;;;;1.40;1.02;;;;;;;;;;5027817;28;20059;-76
2023/01/26 10:56:19;;;;;;;2.10;1.08;;;;;;;;;;5028206;28;20084;-76
2023/01/26 10:58:50;;;;;;;1.10;1.00;;;;;;;;;;5027630;28;20021;-75
2023/01/26 11:01:17;;;;;;;1.73;0.77;;;;;;;;;;5027184;28;20149;-75
2023/01/26 11:03:57;;;;;;;1.38;0.98;;;;;;;;;;5026758;28;20033;-76
2023/01/26 11:06:26;;;;;;;2.40;1.30;;;;;;;;;;5027896;28;20056;-76
2023/01/26 11:08:52;;;;;;;1.52;0.95;;;;;;;;;;5027926;28;20025;-76
2023/01/26 11:11:26;;;;;;;1.52;0.88;;;;;;;;;;5031376;28;20435;-76
2023/01/26 11:14:09;;;;;;;1.23;0.93;;;;;;;;;;5015908;28;20018;-76
2023/01/26 11:16:36;;;;;;;2.03;1.05;;;;;;;;;;5028008;28;20025;-75
2023/01/26 11:19:06;;;;;;;1.10;1.00;;;;;;;;;;5027800;28;20836;-76
2023/01/26 11:21:41;;;;;;;1.58;0.90;;;;;;;;;;5027538;28;20588;-76
2023/01/26 11:24:24;;;;;;;1.30;0.88;;;;;;;;;;5027835;28;20557;-75
2023/01/26 11:26:53;;;;;;;2.35;0.98;;;;;;;;;;5027324;28;20460;-75
2023/01/26 11:29:37;;;;;;;1.38;0.95;;;;;;;;;;5027346;28;20448;-75
2023/01/26 11:32:03;;;;;;;1.52;1.10;;;;;;;;;;5027188;28;20030;-76
2023/01/26 11:34:55;;;;;;;1.65;0.98;;;;;;;;;;5026884;28;20021;-76
2023/01/26 11:37:33;;;;;;;2.15;1.08;;;;;;;;;;4978507;28;20030;-75
2023/01/26 11:40:18;;;;;;;2.05;0.98;;;;;;;;;;5027243;28;20024;-75
2023/01/26 11:43:04;;;;;;;1.77;0.75;;;;;;;;;;5027047;28;20154;-76
2023/01/26 11:45:36;;;;;;;0.88;0.70;;;;;;;;;;5027666;28;20170;-76
2023/01/26 11:48:12;;;;;;;1.25;1.02;;;;;;;;;;5027171;28;20029;-76
2023/01/26 11:50:46;;;;;;;0.95;0.82;;;;;;;;;;5040275;28;20024;-76
2023/01/26 11:53:22;;;;;;;1.23;0.70;;;;;;;;;;5045508;28;20497;-76
2023/01/26 11:56:09;;;;;;;0.85;0.70;;;;;;;;;;5046035;28;20648;-77
2023/01/26 11:58:40;;;;;;;1.00;0.90;;;;;;;;;;5045774;28;20067;-77
2023/01/26 12:01:14;;;;;;;2.30;1.10;;;;;;;;;;5049289;28;20083;-76
2023/01/26 12:03:45;;;;;;;0.60;0.52;;;;;;;;;;5045578;28;20082;-76
2023/01/26 12:06:32;;;;;;;1.27;0.90;;;;;;;;;;5030590;28;20038;-77
2023/01/26 12:09:01;;;;;;;0.70;0.70;;;;;;;;;;5013297;28;20042;-76
2023/01/26 12:11:32;;;;;;;1.83;0.93;;;;;;;;;;5034364;28;20033;-76
2023/01/26 12:14:07;;;;;;;1.33;1.00;;;;;;;;;;5030527;28;20022;-77
2023/01/26 12:16:33;;;;;;;0.90;0.80;;;;;;;;;;5029731;28;20520;-76
2023/01/26 12:19:05;;;;;;;1.55;0.90;;;;;;;;;;5030285;28;20025;-77
2023/01/26 12:21:33;;;;;;;1.05;0.82;;;;;;;;;;5029796;28;20127;-76
2023/01/26 12:24:01;;;;;;;1.45;0.90;;;;;;;;;;5029773;28;20029;-76
2023/01/26 12:26:30;;;;;;;1.02;0.70;;;;;;;;;;5029955;28;20044;-77
2023/01/26 12:29:09;;;;;;;1.30;0.90;;;;;;;;;;5030356;28;20240;-77
2023/01/26 12:31:39;;;;;;;1.08;0.95;;;;;;;;;;5029553;28;20386;-77
2023/01/26 12:34:10;;;;;;;0.98;0.70;;;;;;;;;;5029760;28;20022;-77
2023/01/26 12:36:45;;;;;;;0.73;0.60;;;;;;;;;;5030053;28;20025;-76
2023/01/26 12:39:11;;;;;;;1.25;1.02;;;;;;;;;;5029938;28;20040;-76
2023/01/26 12:42:00;;;;;;;0.77;0.75;;;;;;;;;;5029765;28;20029;-76
2023/01/26 12:44:45;;;;;;;1.98;0.93;;;;;;;;;;4973165;28;20058;-76
2023/01/26 12:47:30;;;;;;;0.45;0.45;;;;;;;;;;5025247;28;20148;-77
2023/01/26 12:50:02;;;;;;;1.60;0.80;;;;;;;;;;5030077;28;20025;-76
2023/01/26 12:52:51;;;;;;;1.38;0.70;;;;;;;;;;5029452;28;20028;-77
2023/01/26 12:55:22;;;;;;;0.88;0.73;;;;;;;;;;5029742;28;20521;-77
2023/01/26 12:57:52;;;;;;;0.80;0.80;;;;;;;;;;5029112;28;20357;-77
2023/01/26 13:00:22;;;;;;;0.73;0.73;;;;;;;;;;5028903;28;20102;-76
2023/01/26 13:02:49;;;;;;;0.70;0.70;;;;;;;;;;5028976;28;20663;-76
2023/01/26 13:05:44;;;;;;;0.88;0.75;;;;;;;;;;5028997;28;20175;-75
2023/01/26 13:08:29;;;;;;;1.45;0.93;;;;;;;;;;4940968;28;20035;-75
2023/01/26 13:10:55;;;;;;;0.82;0.82;;;;;;;;;;5029932;28;20572;-76
2023/01/26 13:13:25;;;;;;;1.15;0.80;;;;;;;;;;5025777;28;20026;-76
2023/01/26 13:16:10;;;;;;;0.77;0.73;;;;;;;;;;5025911;28;20124;-74
2023/01/26 13:18:55;;;;;;;0.85;0.80;;;;;;;;;;5023071;28;20079;-74
2023/01/26 13:21:28;;;;;;;1.77;1.02;;;;;;;;;;5012109;28;20059;-74
2023/01/26 13:23:54;;;;;;;0.82;0.80;;;;;;;;;;5016473;28;20121;-74
2023/01/26 13:26:26;;;;;;;0.77;0.70;;;;;;;;;;5019229;28;20029;-75
2023/01/26 13:28:53;;;;;;;1.02;0.70;;;;;;;;;;5016107;28;20041;-75
2023/01/26 13:31:39;;;;;;;1.08;0.80;;;;;;;;;;5017670;28;20044;-75
2023/01/26 13:34:07;;;;;;;1.38;1.10;;;;;;;;;;5018064;28;20051;-73
2023/01/26 13:36:35;;;;;;;2.50;1.00;;;;;;;;;;5036379;28;20039;-75
2023/01/26 13:39:04;;;;;;;1.10;0.90;;;;;;;;;;5030026;28;20036;-75
2023/01/26 13:41:30;;;;;;;1.08;0.80;;;;;;;;;;5013188;28;20030;-75
2023/01/26 13:44:06;;;;;;;0.80;0.80;;;;;;;;;;5012833;28;20034;-75
2023/01/26 13:46:56;;;;;;;1.27;0.90;;;;;;;;;;5018179;28;20053;-75
2023/01/26 13:49:26;;;;;;;0.60;0.60;;;;;;;;;;5028838;28;20470;-73
2023/01/26 13:51:52;;;;;;;1.30;0.85;;;;;;;;;;5009715;28;20025;-77
2023/01/26 13:54:18;;;;;;;0.82;0.70;;;;;;;;;;5025776;28;20060;-76
2023/01/26 13:57:05;;;;;;;1.63;1.00;;;;;;;;;;5010853;28;20022;-73
2023/01/26 13:59:32;;;;;;;0.82;0.80;;;;;;;;;;5008567;28;20252;-73
2023/01/26 14:01:58;;;;;;;1.85;0.98;;;;;;;;;;5015583;28;20033;-73
2023/01/26 14:04:31;;;;;;;1.27;0.90;;;;;;;;;;5013443;28;20033;-73
2023/01/26 14:07:08;;;;;;;0.95;0.82;;;;;;;;;;5015083;28;20259;-72
2023/01/26 14:09:44;;;;;;;1.15;0.80;;;;;;;;;;5011597;28;20501;-73
2023/01/26 14:12:16;;;;;;;1.27;0.90;;;;;;;;;;5019235;28;20131;-75
2023/01/26 14:14:46;;;;;;;1.08;0.98;;;;;;;;;;5013703;28;20029;-74
2023/01/26 14:17:29;;;;;;;1.55;1.20;;;;;;;;;;5011159;28;20030;-73
2023/01/26 14:19:55;;;;;;;1.88;0.90;;;;;;;;;;5008652;28;22391;-74
2023/01/26 14:22:21;;;;;;;2.00;1.13;;;;;;;;;;5009695;28;20025;-74
2023/01/26 14:24:48;;;;;;;3.90;1.10;;;;;;;;;;5019142;28;20107;-72
2023/01/26 14:27:26;;;;;;;1.65;1.20;;;;;;;;;;5014494;28;20532;-76
2023/01/26 14:29:52;;;;;;;1.05;0.93;;;;;;;;;;5011238;28;20041;-73
2023/01/26 14:32:18;;;;;;;2.05;0.73;;;;;;;;;;5007856;28;20026;-73
2023/01/26 14:34:55;;;;;;;1.77;1.02;;;;;;;;;;5010875;28;20132;-73
2023/01/26 14:37:21;;;;;;;1.55;1.15;;;;;;;;;;5012578;28;20021;-73
2023/01/26 14:39:47;;;;;;;1.60;0.80;;;;;;;;;;5018480;28;20132;-73
2023/01/26 14:42:17;;;;;;;1.98;1.55;;;;;;;;;;5013287;28;20036;-73
2023/01/26 14:44:43;;;;;;;1.25;0.98;;;;;;;;;;5019511;28;20079;-72
2023/01/26 14:47:16;;;;;;;1.70;1.33;;;;;;;;;;5022091;28;20374;-73
2023/01/26 14:49:50;;;;;;;1.65;1.15;;;;;;;;;;5019345;28;20029;-73
2023/01/26 14:52:27;;;;;;;1.83;1.15;;;;;;;;;;5023180;28;20056;-73
2023/01/26 14:54:54;;;;;;;1.15;1.00;;;;;;;;;;5027452;28;20049;-72
2023/01/26 14:57:23;;;;;;;2.28;1.05;;;;;;;;;;5027468;28;20083;-72
2023/01/26 14:59:50;;;;;;;1.10;0.90;;;;;;;;;;5016905;28;20908;-73
2023/01/26 15:02:18;;;;;;;1.50;1.00;;;;;;;;;;5025931;28;20482;-73
2023/01/26 15:04:47;;;;;;;3.70;0.90;;;;;;;;;;5018737;28;20026;-73
2023/01/26 15:07:42;;;;;;;1.75;0.95;;;;;;;;;;5027208;28;20032;-73
2023/01/26 15:10:27;;;;;;;0.77;0.77;;;;;;;;;;4998068;28;20442;-73
2023/01/26 15:12:57;;;;;;;1.15;1.05;;;;;;;;;;5031044;28;20036;-73
2023/01/26 15:15:26;;;;;;;1.02;0.93;;;;;;;;;;5027036;28;20124;-72
2023/01/26 15:18:06;;;;;;;1.58;0.80;;;;;;;;;;5024465;28;20149;-73
2023/01/26 15:20:32;;;;;;;1.70;0.80;;;;;;;;;;5021401;28;20053;-73
2023/01/26 15:22:58;;;;;;;1.27;1.10;;;;;;;;;;5017689;28;20037;-73
2023/01/26 15:25:25;;;;;;;2.17;1.00;;;;;;;;;;5022697;28;20387;-73
2023/01/26 15:27:53;;;;;;;1.65;1.13;;;;;;;;;;5022955;28;20660;-72
2023/01/26 15:30:27;;;;;;;1.80;0.90;;;;;;;;;;5018867;28;20461;-72
2023/01/26 15:32:53;;;;;;;2.33;1.15;;;;;;;;;;5018020;28;20029;-72
2023/01/26 15:35:20;;;;;;;1.40;1.10;;;;;;;;;;5021901;28;20032;-73
2023/01/26 15:37:46;;;;;;;1.30;0.80;;;;;;;;;;5018737;28;20044;-73
2023/01/26 15:40:12;;;;;;;1.35;0.90;;;;;;;;;;5032169;28;20021;-73
2023/01/26 15:42:38;;;;;;;2.60;1.05;;;;;;;;;;5046336;28;20049;-73
2023/01/26 15:45:12;;;;;;;1.45;1.00;;;;;;;;;;5023394;28;20045;-72